LEJR/XRY METAR and TAF weather

Enter ICAO airport designator
Station Type Date Time Source
LEJR METAR 2021/04/13 23:00 UTC NOAA

LEJR 132300Z AUTO 14003KT 080V170 CAVOK 16/10 Q1018


Station Type Date Time Source
LEJR Decoded METAR 2021/04/13 23:00 UTC NOAA

Jerez De La Fronteraaeropuerto, Spain (LEJR) 36-45N 006-04W 28M
Apr 13, 2021 - 07:00 PM EDT / 2021.04.13 2300 UTC
Wind: from the SE (140 degrees) at 3 MPH (3 KT) (direction variable):0
Visibility: greater than 7 mile(s):0
Temperature: 60 F (16 C)
Dew Point: 50 F (10 C)
Relative Humidity: 67%
Pressure (altimeter): 30.06 in. Hg (1018 hPa)
ob: LEJR 132300Z AUTO 14003KT 080V170 CAVOK 16/10 Q1018
cycle: 23

Station Type Date Time Source
LEJR TAF 2021/04/13 18:27 UTC NOAA

TAF LEJR 131700Z 1318/1418 14009KT 9999 FEW040 TX21/1415Z TN12/1406Z PROB30
TEMPO 1410/1416 4000 SHRA SCT035TCU

Example: see airport list